sensor_id;sensor_type;location;lat;lon;timestamp;pressure;altitude;pressure_sealevel;temperature;humidity
50710;BME280;37033;49.994;21.992;2023-02-13T00:01:21;101245.20;;;-2.97;83.62
50710;BME280;37033;49.994;21.992;2023-02-13T00:04:11;101250.84;;;-2.91;83.80
50710;BME280;37033;49.994;21.992;2023-02-13T00:07:01;101238.98;;;-2.84;84.10
50710;BME280;37033;49.994;21.992;2023-02-13T00:09:51;101240.63;;;-2.77;84.00
50710;BME280;37033;49.994;21.992;2023-02-13T00:12:41;101240.20;;;-2.71;84.16
50710;BME280;37033;49.994;21.992;2023-02-13T00:15:30;101239.95;;;-2.65;83.83
50710;BME280;37033;49.994;21.992;2023-02-13T00:18:21;101239.27;;;-2.61;83.62
50710;BME280;37033;49.994;21.992;2023-02-13T00:21:12;101242.44;;;-2.55;83.80
50710;BME280;37033;49.994;21.992;2023-02-13T00:24:02;101245.05;;;-2.49;83.88
50710;BME280;37033;49.994;21.992;2023-02-13T00:26:52;101251.27;;;-2.45;84.01
50710;BME280;37033;49.994;21.992;2023-02-13T00:29:42;101249.68;;;-2.40;83.77
50710;BME280;37033;49.994;21.992;2023-02-13T00:32:31;101241.28;;;-2.37;83.73
50710;BME280;37033;49.994;21.992;2023-02-13T00:35:21;101237.82;;;-2.33;83.92
50710;BME280;37033;49.994;21.992;2023-02-13T00:38:11;101238.66;;;-2.30;83.96
50710;BME280;37033;49.994;21.992;2023-02-13T00:41:00;101230.29;;;-2.27;83.89
50710;BME280;37033;49.994;21.992;2023-02-13T00:43:50;101225.42;;;-2.24;83.87
50710;BME280;37033;49.994;21.992;2023-02-13T00:46:39;101224.13;;;-2.21;84.00
50710;BME280;37033;49.994;21.992;2023-02-13T00:49:29;101221.55;;;-2.17;84.01
50710;BME280;37033;49.994;21.992;2023-02-13T00:52:18;101219.00;;;-2.14;84.12
50710;BME280;37033;49.994;21.992;2023-02-13T00:55:08;101223.81;;;-2.09;84.21
50710;BME280;37033;49.994;21.992;2023-02-13T00:57:58;101216.58;;;-2.05;84.26
50710;BME280;37033;49.994;21.992;2023-02-13T01:00:47;101213.58;;;-2.01;84.36
50710;BME280;37033;49.994;21.992;2023-02-13T01:03:37;101210.96;;;-1.97;84.34
50710;BME280;37033;49.994;21.992;2023-02-13T01:06:26;101208.96;;;-1.94;84.23
50710;BME280;37033;49.994;21.992;2023-02-13T01:09:16;101202.79;;;-1.89;84.28
50710;BME280;37033;49.994;21.992;2023-02-13T01:12:06;101198.65;;;-1.87;84.55
50710;BME280;37033;49.994;21.992;2023-02-13T01:14:56;101197.46;;;-1.83;84.46
50710;BME280;37033;49.994;21.992;2023-02-13T01:17:45;101192.57;;;-1.79;84.42
50710;BME280;37033;49.994;21.992;2023-02-13T01:20:35;101189.20;;;-1.74;84.46
50710;BME280;37033;49.994;21.992;2023-02-13T01:23:24;101179.89;;;-1.71;84.66
50710;BME280;37033;49.994;21.992;2023-02-13T01:26:17;101183.44;;;-1.66;84.59
50710;BME280;37033;49.994;21.992;2023-02-13T01:29:08;101178.64;;;-1.62;84.89
50710;BME280;37033;49.994;21.992;2023-02-13T01:31:58;101175.30;;;-1.58;84.66
50710;BME280;37033;49.994;21.992;2023-02-13T01:34:51;101171.23;;;-1.54;84.74
50710;BME280;37033;49.994;21.992;2023-02-13T01:37:40;101165.05;;;-1.49;84.74
50710;BME280;37033;49.994;21.992;2023-02-13T01:40:30;101170.27;;;-1.45;84.82
50710;BME280;37033;49.994;21.992;2023-02-13T01:43:21;101168.20;;;-1.42;84.63
50710;BME280;37033;49.994;21.992;2023-02-13T01:46:12;101162.74;;;-1.38;84.73
50710;BME280;37033;49.994;21.992;2023-02-13T01:49:08;101154.63;;;-1.34;84.74
50710;BME280;37033;49.994;21.992;2023-02-13T01:51:59;101148.36;;;-1.32;84.89
50710;BME280;37033;49.994;21.992;2023-02-13T01:54:49;101147.92;;;-1.28;84.62
50710;BME280;37033;49.994;21.992;2023-02-13T01:57:39;101147.08;;;-1.27;84.86
50710;BME280;37033;49.994;21.992;2023-02-13T02:00:31;101144.70;;;-1.23;84.79
50710;BME280;37033;49.994;21.992;2023-02-13T02:03:25;101140.65;;;-1.22;84.72
50710;BME280;37033;49.994;21.992;2023-02-13T02:06:19;101134.23;;;-1.20;84.88
50710;BME280;37033;49.994;21.992;2023-02-13T02:09:13;101131.81;;;-1.16;85.13
50710;BME280;37033;49.994;21.992;2023-02-13T02:12:07;101129.98;;;-1.13;85.14
50710;BME280;37033;49.994;21.992;2023-02-13T02:14:59;101126.77;;;-1.10;85.07
50710;BME280;37033;49.994;21.992;2023-02-13T02:17:50;101124.30;;;-1.08;85.29
50710;BME280;37033;49.994;21.992;2023-02-13T02:21:30;101121.64;;;-1.07;85.35
50710;BME280;37033;49.994;21.992;2023-02-13T02:24:50;101116.61;;;-1.04;85.51
50710;BME280;37033;49.994;21.992;2023-02-13T02:28:12;101116.03;;;-1.01;85.59
50710;BME280;37033;49.994;21.992;2023-02-13T02:31:25;101120.23;;;-0.97;85.76
50710;BME280;37033;49.994;21.992;2023-02-13T02:34:25;101122.17;;;-0.95;85.55
50710;BME280;37033;49.994;21.992;2023-02-13T02:37:29;101120.72;;;-0.93;85.58
50710;BME280;37033;49.994;21.992;2023-02-13T02:40:28;101118.91;;;-0.90;85.56
50710;BME280;37033;49.994;21.992;2023-02-13T02:43:29;101118.34;;;-0.88;85.55
50710;BME280;37033;49.994;21.992;2023-02-13T02:46:30;101118.56;;;-0.84;85.56
50710;BME280;37033;49.994;21.992;2023-02-13T02:49:22;101117.47;;;-0.81;85.78
50710;BME280;37033;49.994;21.992;2023-02-13T02:52:32;101121.27;;;-0.78;85.65
50710;BME280;37033;49.994;21.992;2023-02-13T02:55:34;101120.30;;;-0.74;85.97
50710;BME280;37033;49.994;21.992;2023-02-13T02:58:32;101123.52;;;-0.73;85.71
50710;BME280;37033;49.994;21.992;2023-02-13T03:01:43;101120.92;;;-0.69;85.77
50710;BME280;37033;49.994;21.992;2023-02-13T03:04:54;101122.65;;;-0.66;85.87
50710;BME280;37033;49.994;21.992;2023-02-13T03:08:04;101121.41;;;-0.64;86.12
50710;BME280;37033;49.994;21.992;2023-02-13T03:10:53;101121.25;;;-0.60;86.06
50710;BME280;37033;49.994;21.992;2023-02-13T03:14:08;101125.44;;;-0.56;86.00
50710;BME280;37033;49.994;21.992;2023-02-13T03:17:00;101128.98;;;-0.54;85.93
50710;BME280;37033;49.994;21.992;2023-02-13T03:20:17;101129.20;;;-0.52;86.00
50710;BME280;37033;49.994;21.992;2023-02-13T03:23:34;101128.93;;;-0.49;85.96
50710;BME280;37033;49.994;21.992;2023-02-13T03:26:36;101125.60;;;-0.48;86.11
50710;BME280;37033;49.994;21.992;2023-02-13T03:29:45;101131.77;;;-0.45;85.99
50710;BME280;37033;49.994;21.992;2023-02-13T03:33:03;101126.96;;;-0.43;86.04
50710;BME280;37033;49.994;21.992;2023-02-13T03:36:03;101125.83;;;-0.42;85.93
50710;BME280;37033;49.994;21.992;2023-02-13T03:39:20;101128.34;;;-0.40;86.25
50710;BME280;37033;49.994;21.992;2023-02-13T03:42:17;101123.70;;;-0.38;86.11
50710;BME280;37033;49.994;21.992;2023-02-13T03:45:12;101124.61;;;-0.36;86.12
50710;BME280;37033;49.994;21.992;2023-02-13T03:48:23;101121.02;;;-0.34;86.29
50710;BME280;37033;49.994;21.992;2023-02-13T03:51:35;101122.19;;;-0.33;86.11
50710;BME280;37033;49.994;21.992;2023-02-13T03:54:30;101117.86;;;-0.32;86.19
50710;BME280;37033;49.994;21.992;2023-02-13T03:57:42;101117.61;;;-0.31;86.15
50710;BME280;37033;49.994;21.992;2023-02-13T04:00:53;101117.04;;;-0.31;86.22
50710;BME280;37033;49.994;21.992;2023-02-13T04:03:47;101111.32;;;-0.30;86.05
50710;BME280;37033;49.994;21.992;2023-02-13T04:06:45;101103.25;;;-0.30;86.12
50710;BME280;37033;49.994;21.992;2023-02-13T04:09:38;101105.20;;;-0.30;86.22
50710;BME280;37033;49.994;21.992;2023-02-13T04:12:37;101100.30;;;-0.29;86.25
50710;BME280;37033;49.994;21.992;2023-02-13T04:15:30;101098.83;;;-0.28;86.16
50710;BME280;37033;49.994;21.992;2023-02-13T04:18:24;101101.09;;;-0.27;86.28
50710;BME280;37033;49.994;21.992;2023-02-13T04:21:15;101098.48;;;-0.26;86.28
50710;BME280;37033;49.994;21.992;2023-02-13T04:24:07;101104.48;;;-0.25;86.30
50710;BME280;37033;49.994;21.992;2023-02-13T04:26:57;101104.67;;;-0.24;86.55
50710;BME280;37033;49.994;21.992;2023-02-13T04:29:46;101100.77;;;-0.22;86.38
50710;BME280;37033;49.994;21.992;2023-02-13T04:32:36;101101.20;;;-0.20;86.46
50710;BME280;37033;49.994;21.992;2023-02-13T04:35:25;101098.56;;;-0.18;86.42
50710;BME280;37033;49.994;21.992;2023-02-13T04:38:15;101100.27;;;-0.17;86.42
50710;BME280;37033;49.994;21.992;2023-02-13T04:41:05;101094.05;;;-0.15;86.45
50710;BME280;37033;49.994;21.992;2023-02-13T04:43:54;101094.77;;;-0.13;86.36
50710;BME280;37033;49.994;21.992;2023-02-13T04:46:44;101093.39;;;-0.12;86.38
50710;BME280;37033;49.994;21.992;2023-02-13T04:49:33;101092.17;;;-0.10;86.29
50710;BME280;37033;49.994;21.992;2023-02-13T04:52:22;101093.09;;;-0.08;86.32
50710;BME280;37033;49.994;21.992;2023-02-13T04:55:12;101092.03;;;-0.06;86.46
50710;BME280;37033;49.994;21.992;2023-02-13T04:58:02;101095.67;;;-0.05;86.54
50710;BME280;37033;49.994;21.992;2023-02-13T05:00:51;101096.42;;;-0.04;86.53
50710;BME280;37033;49.994;21.992;2023-02-13T05:03:41;101095.57;;;-0.02;86.54
50710;BME280;37033;49.994;21.992;2023-02-13T05:06:30;101094.73;;;-0.01;86.56
50710;BME280;37033;49.994;21.992;2023-02-13T05:09:21;101096.45;;;0.01;86.62
50710;BME280;37033;49.994;21.992;2023-02-13T05:12:10;101097.55;;;0.02;86.52
50710;BME280;37033;49.994;21.992;2023-02-13T05:15:00;101100.30;;;0.03;86.53
50710;BME280;37033;49.994;21.992;2023-02-13T05:17:49;101101.66;;;0.04;86.51
50710;BME280;37033;49.994;21.992;2023-02-13T05:20:39;101102.10;;;0.05;86.65
50710;BME280;37033;49.994;21.992;2023-02-13T05:23:28;101101.20;;;0.05;86.81
50710;BME280;37033;49.994;21.992;2023-02-13T05:26:18;101101.84;;;0.06;86.89
50710;BME280;37033;49.994;21.992;2023-02-13T05:29:09;101102.15;;;0.06;87.02
50710;BME280;37033;49.994;21.992;2023-02-13T05:32:07;101103.73;;;0.07;87.01
50710;BME280;37033;49.994;21.992;2023-02-13T05:34:57;101106.66;;;0.06;87.26
50710;BME280;37033;49.994;21.992;2023-02-13T05:37:46;101109.73;;;0.05;87.48
50710;BME280;37033;49.994;21.992;2023-02-13T05:40:35;101107.20;;;0.04;87.51
50710;BME280;37033;49.994;21.992;2023-02-13T05:43:25;101115.06;;;0.01;87.56
50710;BME280;37033;49.994;21.992;2023-02-13T05:46:14;101113.27;;;-0.00;87.84
50710;BME280;37033;49.994;21.992;2023-02-13T05:49:04;101112.52;;;-0.02;88.09
50710;BME280;37033;49.994;21.992;2023-02-13T05:51:54;101113.20;;;-0.04;88.23
50710;BME280;37033;49.994;21.992;2023-02-13T05:54:44;101109.79;;;-0.06;88.21
50710;BME280;37033;49.994;21.992;2023-02-13T05:57:33;101112.36;;;-0.07;88.41
50710;BME280;37033;49.994;21.992;2023-02-13T06:00:24;101110.34;;;-0.08;88.49
50710;BME280;37033;49.994;21.992;2023-02-13T06:03:13;101110.89;;;-0.08;88.62
50710;BME280;37033;49.994;21.992;2023-02-13T06:06:04;101108.84;;;-0.09;88.69
50710;BME280;37033;49.994;21.992;2023-02-13T06:08:53;101105.65;;;-0.09;88.97
50710;BME280;37033;49.994;21.992;2023-02-13T06:11:43;101112.33;;;-0.08;88.99
50710;BME280;37033;49.994;21.992;2023-02-13T06:14:32;101109.46;;;-0.08;88.88
50710;BME280;37033;49.994;21.992;2023-02-13T06:17:22;101107.05;;;-0.07;89.22
50710;BME280;37033;49.994;21.992;2023-02-13T06:20:12;101107.48;;;-0.06;89.12
50710;BME280;37033;49.994;21.992;2023-02-13T06:23:02;101105.36;;;-0.04;89.31
50710;BME280;37033;49.994;21.992;2023-02-13T06:25:52;101108.98;;;-0.03;89.67
50710;BME280;37033;49.994;21.992;2023-02-13T06:28:41;101107.04;;;-0.01;89.72
50710;BME280;37033;49.994;21.992;2023-02-13T06:31:31;101117.23;;;0.01;89.67
50710;BME280;37033;49.994;21.992;2023-02-13T06:34:21;101115.59;;;0.04;89.62
50710;BME280;37033;49.994;21.992;2023-02-13T06:37:10;101122.48;;;0.06;89.72
50710;BME280;37033;49.994;21.992;2023-02-13T06:40:00;101120.83;;;0.09;89.78
50710;BME280;37033;49.994;21.992;2023-02-13T06:42:50;101117.95;;;0.11;89.78
50710;BME280;37033;49.994;21.992;2023-02-13T06:45:39;101112.73;;;0.16;89.93
50710;BME280;37033;49.994;21.992;2023-02-13T06:48:29;101110.90;;;0.18;90.09
50710;BME280;37033;49.994;21.992;2023-02-13T06:51:20;101112.33;;;0.21;90.22
50710;BME280;37033;49.994;21.992;2023-02-13T06:54:10;101125.43;;;0.24;90.15
50710;BME280;37033;49.994;21.992;2023-02-13T06:56:59;101123.77;;;0.27;90.19
50710;BME280;37033;49.994;21.992;2023-02-13T06:59:49;101120.52;;;0.29;90.31
50710;BME280;37033;49.994;21.992;2023-02-13T07:02:39;101114.36;;;0.33;90.46
50710;BME280;37033;49.994;21.992;2023-02-13T07:05:28;101105.62;;;0.37;90.42
50710;BME280;37033;49.994;21.992;2023-02-13T07:08:18;101100.98;;;0.41;90.39
50710;BME280;37033;49.994;21.992;2023-02-13T07:11:08;101096.39;;;0.45;90.45
50710;BME280;37033;49.994;21.992;2023-02-13T07:14:04;101100.33;;;0.48;90.56
50710;BME280;37033;49.994;21.992;2023-02-13T07:16:55;101099.05;;;0.53;90.55
50710;BME280;37033;49.994;21.992;2023-02-13T07:19:45;101101.58;;;0.56;90.70
50710;BME280;37033;49.994;21.992;2023-02-13T07:22:34;101100.23;;;0.59;90.70
50710;BME280;37033;49.994;21.992;2023-02-13T07:25:24;101107.05;;;0.64;90.74
50710;BME280;37033;49.994;21.992;2023-02-13T07:28:13;101112.11;;;0.69;90.62
50710;BME280;37033;49.994;21.992;2023-02-13T07:31:06;101112.58;;;0.74;90.75
50710;BME280;37033;49.994;21.992;2023-02-13T07:33:55;101108.27;;;0.78;90.76
50710;BME280;37033;49.994;21.992;2023-02-13T07:36:45;101108.48;;;0.84;90.88
50710;BME280;37033;49.994;21.992;2023-02-13T07:39:35;101115.25;;;0.88;90.89
50710;BME280;37033;49.994;21.992;2023-02-13T07:42:26;101121.92;;;0.93;90.86
50710;BME280;37033;49.994;21.992;2023-02-13T07:45:16;101118.15;;;0.97;90.82
50710;BME280;37033;49.994;21.992;2023-02-13T07:48:06;101113.66;;;1.02;90.77
50710;BME280;37033;49.994;21.992;2023-02-13T07:50:59;101118.28;;;1.06;90.80
50710;BME280;37033;49.994;21.992;2023-02-13T07:53:49;101112.13;;;1.11;90.84
50710;BME280;37033;49.994;21.992;2023-02-13T07:56:39;101116.45;;;1.16;90.77
50710;BME280;37033;49.994;21.992;2023-02-13T07:59:29;101118.52;;;1.23;90.96
50710;BME280;37033;49.994;21.992;2023-02-13T08:02:18;101119.49;;;1.30;90.94
50710;BME280;37033;49.994;21.992;2023-02-13T08:05:08;101117.16;;;1.38;91.23
50710;BME280;37033;49.994;21.992;2023-02-13T08:07:58;101111.48;;;1.48;91.43
50710;BME280;37033;49.994;21.992;2023-02-13T08:10:48;101105.87;;;1.59;91.51
50710;BME280;37033;49.994;21.992;2023-02-13T08:13:56;101106.35;;;1.69;91.57
50710;BME280;37033;49.994;21.992;2023-02-13T08:16:45;101109.14;;;1.79;91.86
50710;BME280;37033;49.994;21.992;2023-02-13T08:19:34;101108.64;;;1.89;91.85
50710;BME280;37033;49.994;21.992;2023-02-13T08:22:24;101111.98;;;1.99;92.00
50710;BME280;37033;49.994;21.992;2023-02-13T08:25:14;101112.51;;;2.07;92.06
50710;BME280;37033;49.994;21.992;2023-02-13T08:28:05;101111.65;;;2.12;91.98
50710;BME280;37033;49.994;21.992;2023-02-13T08:30:54;101112.31;;;2.18;92.11
50710;BME280;37033;49.994;21.992;2023-02-13T08:33:44;101105.69;;;2.24;92.43
50710;BME280;37033;49.994;21.992;2023-02-13T08:36:36;101104.65;;;2.29;92.24
50710;BME280;37033;49.994;21.992;2023-02-13T08:39:26;101102.41;;;2.34;92.29
50710;BME280;37033;49.994;21.992;2023-02-13T08:42:15;101108.98;;;2.39;92.33
50710;BME280;37033;49.994;21.992;2023-02-13T08:45:06;101109.50;;;2.42;92.34
50710;BME280;37033;49.994;21.992;2023-02-13T08:47:58;101109.60;;;2.47;92.36
50710;BME280;37033;49.994;21.992;2023-02-13T08:50:49;101104.98;;;2.52;92.31
50710;BME280;37033;49.994;21.992;2023-02-13T08:53:38;101103.36;;;2.58;92.42
50710;BME280;37033;49.994;21.992;2023-02-13T08:56:29;101103.02;;;2.64;92.28
50710;BME280;37033;49.994;21.992;2023-02-13T08:59:20;101102.14;;;2.67;92.38
50710;BME280;37033;49.994;21.992;2023-02-13T09:02:11;101102.88;;;2.72;92.27
50710;BME280;37033;49.994;21.992;2023-02-13T09:05:00;101094.98;;;2.78;92.44
50710;BME280;37033;49.994;21.992;2023-02-13T09:07:49;101093.52;;;2.82;92.31
50710;BME280;37033;49.994;21.992;2023-02-13T09:10:40;101091.91;;;2.88;92.28
50710;BME280;37033;49.994;21.992;2023-02-13T09:13:31;101093.10;;;2.92;92.16
50710;BME280;37033;49.994;21.992;2023-02-13T09:16:22;101095.63;;;2.98;92.09
50710;BME280;37033;49.994;21.992;2023-02-13T09:19:11;101096.94;;;3.02;91.97
50710;BME280;37033;49.994;21.992;2023-02-13T09:22:01;101091.16;;;3.06;91.92
50710;BME280;37033;49.994;21.992;2023-02-13T09:24:50;101095.91;;;3.11;91.87
50710;BME280;37033;49.994;21.992;2023-02-13T09:27:40;101100.70;;;3.15;91.73
50710;BME280;37033;49.994;21.992;2023-02-13T09:30:29;101104.70;;;3.20;91.73
50710;BME280;37033;49.994;21.992;2023-02-13T09:33:19;101099.90;;;3.25;91.56
50710;BME280;37033;49.994;21.992;2023-02-13T09:36:10;101098.39;;;3.29;91.54
50710;BME280;37033;49.994;21.992;2023-02-13T09:39:01;101091.27;;;3.32;91.42
50710;BME280;37033;49.994;21.992;2023-02-13T09:41:52;101086.32;;;3.35;91.32
50710;BME280;37033;49.994;21.992;2023-02-13T09:44:43;101088.64;;;3.37;91.12
50710;BME280;37033;49.994;21.992;2023-02-13T09:47:35;101082.73;;;3.41;91.09
50710;BME280;37033;49.994;21.992;2023-02-13T09:50:28;101079.73;;;3.44;91.01
50710;BME280;37033;49.994;21.992;2023-02-13T09:53:21;101080.32;;;3.49;91.02
50710;BME280;37033;49.994;21.992;2023-02-13T09:56:16;101081.73;;;3.54;90.89
50710;BME280;37033;49.994;21.992;2023-02-13T09:59:25;101070.58;;;3.59;90.86
50710;BME280;37033;49.994;21.992;2023-02-13T10:02:43;101063.59;;;3.62;90.69
50710;BME280;37033;49.994;21.992;2023-02-13T10:05:46;101056.52;;;3.67;90.49
50710;BME280;37033;49.994;21.992;2023-02-13T10:08:53;101057.87;;;3.71;90.34
50710;BME280;37033;49.994;21.992;2023-02-13T10:12:10;101053.38;;;3.74;90.15
50710;BME280;37033;49.994;21.992;2023-02-13T10:15:13;101053.91;;;3.80;89.92
50710;BME280;37033;49.994;21.992;2023-02-13T10:18:07;101047.37;;;3.86;90.03
50710;BME280;37033;49.994;21.992;2023-02-13T10:21:00;101040.23;;;3.94;89.96
50710;BME280;37033;49.994;21.992;2023-02-13T10:23:56;101038.48;;;4.03;89.74
50710;BME280;37033;49.994;21.992;2023-02-13T10:26:48;101040.10;;;4.09;89.56
50710;BME280;37033;49.994;21.992;2023-02-13T10:29:40;101043.94;;;4.16;89.25
50710;BME280;37033;49.994;21.992;2023-02-13T10:32:56;101042.92;;;4.21;88.95
50710;BME280;37033;49.994;21.992;2023-02-13T10:36:04;101035.55;;;4.26;88.60
50710;BME280;37033;49.994;21.992;2023-02-13T10:39:01;101031.64;;;4.31;88.36
50710;BME280;37033;49.994;21.992;2023-02-13T10:41:57;101032.52;;;4.34;88.26
50710;BME280;37033;49.994;21.992;2023-02-13T10:44:56;101024.09;;;4.40;88.29
50710;BME280;37033;49.994;21.992;2023-02-13T10:48:03;101028.26;;;4.46;87.92
50710;BME280;37033;49.994;21.992;2023-02-13T10:51:01;101019.45;;;4.51;87.98
50710;BME280;37033;49.994;21.992;2023-02-13T10:54:06;101014.37;;;4.57;87.54
50710;BME280;37033;49.994;21.992;2023-02-13T10:57:09;101009.83;;;4.61;87.28
50710;BME280;37033;49.994;21.992;2023-02-13T11:00:07;101010.23;;;4.67;87.46
50710;BME280;37033;49.994;21.992;2023-02-13T11:03:00;101010.92;;;4.74;87.19
50710;BME280;37033;49.994;21.992;2023-02-13T11:05:51;101014.98;;;4.80;86.93
50710;BME280;37033;49.994;21.992;2023-02-13T11:08:42;101007.17;;;4.84;86.57
50710;BME280;37033;49.994;21.992;2023-02-13T11:11:34;101002.30;;;4.87;86.41
50710;BME280;37033;49.994;21.992;2023-02-13T11:14:25;101004.88;;;4.92;86.27
50710;BME280;37033;49.994;21.992;2023-02-13T11:17:18;101003.64;;;4.97;86.18
50710;BME280;37033;49.994;21.992;2023-02-13T11:20:25;101003.09;;;5.01;85.98
50710;BME280;37033;49.994;21.992;2023-02-13T11:23:33;101004.39;;;5.02;85.65
50710;BME280;37033;49.994;21.992;2023-02-13T11:26:26;101009.30;;;5.05;85.64
50710;BME280;37033;49.994;21.992;2023-02-13T11:29:21;101013.98;;;5.09;85.81
50710;BME280;37033;49.994;21.992;2023-02-13T11:32:23;101009.32;;;5.16;85.79
50710;BME280;37033;49.994;21.992;2023-02-13T11:35:30;101010.94;;;5.20;85.28
50710;BME280;37033;49.994;21.992;2023-02-13T11:38:24;101016.65;;;5.21;85.19
50710;BME280;37033;49.994;21.992;2023-02-13T11:41:15;101012.34;;;5.23;85.35
50710;BME280;37033;49.994;21.992;2023-02-13T11:44:16;101009.26;;;5.28;85.47
50710;BME280;37033;49.994;21.992;2023-02-13T11:47:08;101007.65;;;5.33;85.23
50710;BME280;37033;49.994;21.992;2023-02-13T11:49:58;101009.70;;;5.36;85.22
50710;BME280;37033;49.994;21.992;2023-02-13T11:52:55;101002.42;;;5.38;85.14
50710;BME280;37033;49.994;21.992;2023-02-13T11:56:00;100998.79;;;5.42;84.77
50710;BME280;37033;49.994;21.992;2023-02-13T11:59:01;100996.15;;;5.43;84.27
50710;BME280;37033;49.994;21.992;2023-02-13T12:02:10;100992.58;;;5.44;84.20
50710;BME280;37033;49.994;21.992;2023-02-13T12:08:00;100983.77;;;5.52;84.17
50710;BME280;37033;49.994;21.992;2023-02-13T12:10:50;100978.15;;;5.53;83.80
50710;BME280;37033;49.994;21.992;2023-02-13T12:13:40;100978.89;;;5.54;83.88
50710;BME280;37033;49.994;21.992;2023-02-13T12:16:33;100973.39;;;5.59;84.00
50710;BME280;37033;49.994;21.992;2023-02-13T12:19:30;100973.65;;;5.62;83.65
50710;BME280;37033;49.994;21.992;2023-02-13T12:22:30;100972.72;;;5.66;83.56
50710;BME280;37033;49.994;21.992;2023-02-13T12:25:41;100971.73;;;5.70;83.42
50710;BME280;37033;49.994;21.992;2023-02-13T12:28:42;100970.00;;;5.72;83.13
50710;BME280;37033;49.994;21.992;2023-02-13T12:31:53;100963.48;;;5.75;82.81
50710;BME280;37033;49.994;21.992;2023-02-13T12:35:00;100953.53;;;5.77;82.61
50710;BME280;37033;49.994;21.992;2023-02-13T12:38:08;100951.00;;;5.82;82.51
50710;BME280;37033;49.994;21.992;2023-02-13T12:41:16;100948.09;;;5.86;82.02
50710;BME280;37033;49.994;21.992;2023-02-13T12:44:29;100946.26;;;5.89;81.73
50710;BME280;37033;49.994;21.992;2023-02-13T12:47:29;100940.21;;;5.91;81.38
50710;BME280;37033;49.994;21.992;2023-02-13T12:50:33;100939.19;;;5.94;81.07
50710;BME280;37033;49.994;21.992;2023-02-13T12:53:52;100937.94;;;5.98;81.17
50710;BME280;37033;49.994;21.992;2023-02-13T12:57:05;100926.20;;;6.06;81.46
50710;BME280;37033;49.994;21.992;2023-02-13T13:00:11;100925.02;;;6.13;81.59
50710;BME280;37033;49.994;21.992;2023-02-13T13:06:43;100923.95;;;6.21;81.16
50710;BME280;37033;49.994;21.992;2023-02-13T13:09:51;100922.36;;;6.19;80.26
50710;BME280;37033;49.994;21.992;2023-02-13T13:12:52;100918.70;;;6.12;79.21
50710;BME280;37033;49.994;21.992;2023-02-13T13:15:54;100917.40;;;6.03;78.61
50710;BME280;37033;49.994;21.992;2023-02-13T13:18:54;100920.45;;;6.00;78.69
50710;BME280;37033;49.994;21.992;2023-02-13T13:21:49;100923.95;;;5.99;78.57
50710;BME280;37033;49.994;21.992;2023-02-13T13:24:52;100923.94;;;5.98;78.33
50710;BME280;37033;49.994;21.992;2023-02-13T13:27:45;100925.35;;;5.96;78.12
50710;BME280;37033;49.994;21.992;2023-02-13T13:30:38;100925.38;;;5.92;77.76
50710;BME280;37033;49.994;21.992;2023-02-13T13:33:29;100931.73;;;5.88;77.97
50710;BME280;37033;49.994;21.992;2023-02-13T13:36:30;100927.89;;;5.86;77.65
50710;BME280;37033;49.994;21.992;2023-02-13T13:39:31;100927.27;;;5.80;77.11
50710;BME280;37033;49.994;21.992;2023-02-13T13:42:29;100926.44;;;5.70;76.59
50710;BME280;37033;49.994;21.992;2023-02-13T13:45:27;100929.34;;;5.60;76.97
50710;BME280;37033;49.994;21.992;2023-02-13T13:51:44;100933.25;;;5.44;77.47
50710;BME280;37033;49.994;21.992;2023-02-13T13:54:36;100938.45;;;5.36;77.49
50710;BME280;37033;49.994;21.992;2023-02-13T13:57:27;100930.87;;;5.27;77.73
50710;BME280;37033;49.994;21.992;2023-02-13T14:00:37;100925.60;;;5.14;78.41
50710;BME280;37033;49.994;21.992;2023-02-13T14:03:34;100922.43;;;5.07;78.84
50710;BME280;37033;49.994;21.992;2023-02-13T14:06:26;100923.91;;;5.00;79.21
50710;BME280;37033;49.994;21.992;2023-02-13T14:09:38;100918.73;;;4.96;79.50
50710;BME280;37033;49.994;21.992;2023-02-13T14:12:44;100914.14;;;4.94;79.64
50710;BME280;37033;49.994;21.992;2023-02-13T14:15:52;100908.48;;;4.90;79.76
50710;BME280;37033;49.994;21.992;2023-02-13T14:18:45;100910.09;;;4.85;80.00
50710;BME280;37033;49.994;21.992;2023-02-13T14:21:37;100910.99;;;4.81;80.15
50710;BME280;37033;49.994;21.992;2023-02-13T14:24:26;100908.77;;;4.79;80.26
50710;BME280;37033;49.994;21.992;2023-02-13T14:27:22;100908.70;;;4.76;80.42
50710;BME280;37033;49.994;21.992;2023-02-13T14:30:28;100903.77;;;4.72;80.57
50710;BME280;37033;49.994;21.992;2023-02-13T14:33:30;100904.34;;;4.68;80.74
50710;BME280;37033;49.994;21.992;2023-02-13T14:36:22;100902.92;;;4.65;80.93
50710;BME280;37033;49.994;21.992;2023-02-13T14:39:24;100896.28;;;4.61;81.09
50710;BME280;37033;49.994;21.992;2023-02-13T14:42:27;100885.84;;;4.57;81.25
50710;BME280;37033;49.994;21.992;2023-02-13T14:45:21;100884.17;;;4.50;81.46
50710;BME280;37033;49.994;21.992;2023-02-13T14:48:15;100885.08;;;4.47;81.57
50710;BME280;37033;49.994;21.992;2023-02-13T14:51:05;100889.30;;;4.44;81.76
50710;BME280;37033;49.994;21.992;2023-02-13T14:54:01;100886.20;;;4.41;81.80
50710;BME280;37033;49.994;21.992;2023-02-13T14:56:50;100888.09;;;4.39;81.83
50710;BME280;37033;49.994;21.992;2023-02-13T14:59:43;100891.88;;;4.35;81.87
50710;BME280;37033;49.994;21.992;2023-02-13T15:02:36;100887.05;;;4.33;81.98
50710;BME280;37033;49.994;21.992;2023-02-13T15:05:32;100883.34;;;4.31;82.08
50710;BME280;37033;49.994;21.992;2023-02-13T15:08:25;100881.90;;;4.30;82.24
50710;BME280;37033;49.994;21.992;2023-02-13T15:11:33;100884.36;;;4.28;82.32
50710;BME280;37033;49.994;21.992;2023-02-13T15:14:32;100882.06;;;4.27;82.50
50710;BME280;37033;49.994;21.992;2023-02-13T15:17:24;100870.67;;;4.25;82.58
50710;BME280;37033;49.994;21.992;2023-02-13T15:20:22;100864.61;;;4.24;82.60